Time;durP1;ratioP1;P1;durP2;ratioP2;P2;SDS_P1;SDS_P2;PMS_P1;PMS_P2;Temp;Humidity;BMP_temperature;BMP_pressure;BME280_temperature;BME280_humidity;BME280_pressure;Samples;Min_cycle;Max_cycle;Signal;HPM_P1;HPM_P2
2023/06/27 07:01:20;;;;;;;1.38;1.38;;;24.60;99.90;29.10;102023.00;;;;6249342;22;1399955;-62
2023/06/27 07:03:46;;;;;;;0.28;0.28;;;24.80;99.90;31.50;101985.00;;;;6309779;22;20179;-62
2023/06/27 07:06:12;;;;;;;0.20;0.20;;;26.40;99.90;32.30;101964.00;;;;6309688;22;20144;-62
2023/06/27 07:08:38;;;;;;;1.65;1.55;;;27.60;99.90;31.90;101971.00;;;;6308933;22;20145;-62
2023/06/27 07:11:04;;;;;;;3.33;1.00;;;28.10;99.90;27.00;102036.00;;;;6309641;22;20137;-61
2023/06/27 07:13:33;;;;;;;0.68;0.68;;;25.60;99.90;29.00;102022.00;;;;6309136;22;20165;-61
2023/06/27 07:16:02;;;;;;;2.67;1.38;;;25.20;99.90;28.10;102039.00;;;;6309499;22;20174;-61
2023/06/27 07:18:30;;;;;;;0.43;0.43;;;24.70;99.90;27.40;102041.00;;;;6309357;22;20141;-61
2023/06/27 07:20:58;;;;;;;0.10;0.10;;;24.00;99.90;28.10;102039.00;;;;6309623;22;20147;-61
2023/06/27 07:23:26;;;;;;;0.80;0.80;;;24.30;99.90;28.50;102043.00;;;;6309007;22;20152;-61
2023/06/27 07:25:54;;;;;;;0.10;0.10;;;24.60;99.90;29.40;102039.00;;;;6309181;22;20144;-62
2023/06/27 07:28:23;;;;;;;0.10;0.10;;;25.30;99.90;30.40;102017.00;;;;6282145;22;20186;-62
2023/06/27 07:30:51;;;;;;;0.10;0.10;;;26.00;99.90;31.30;101992.00;;;;6308742;22;20156;-62
2023/06/27 07:33:17;;;;;;;0.10;0.10;;;26.80;99.90;31.60;101976.00;;;;6309263;22;20168;-61
2023/06/27 07:35:52;;;;;;;0.10;0.10;;;27.10;99.90;32.30;101981.00;;;;6308981;22;20151;-62
2023/06/27 07:38:18;;;;;;;0.10;0.10;;;27.80;99.90;32.30;101987.00;;;;6308762;22;20190;-62
2023/06/27 07:40:45;;;;;;;0.10;0.10;;;28.10;99.90;31.90;101986.00;;;;6308998;22;20136;-62
2023/06/27 07:43:14;;;;;;;0.10;0.10;;;27.80;99.90;27.10;102058.00;;;;6309440;22;20148;-61
2023/06/27 07:45:59;;;;;;;0.43;0.43;;;25.80;99.90;28.60;102034.00;;;;6307769;22;20538;-62
2023/06/27 07:48:45;;;;;;;0.20;0.20;;;24.90;99.90;29.70;102031.00;;;;6309071;22;20164;-61
2023/06/27 07:51:18;;;;;;;0.10;0.10;;;25.20;99.90;29.80;102025.00;;;;6308874;22;20583;-63
2023/06/27 07:53:49;;;;;;;0.15;0.15;;;25.70;99.90;30.20;102029.00;;;;6281870;22;20160;-62
2023/06/27 07:56:22;;;;;;;0.52;0.52;;;25.70;99.90;30.60;102022.00;;;;6281729;22;20510;-61
2023/06/27 07:58:48;;;;;;;0.10;0.10;;;25.90;99.90;31.50;102013.00;;;;6309098;22;20225;-62
2023/06/27 08:01:14;;;;;;;1.15;1.08;;;26.60;99.90;28.00;102061.00;;;;6309214;22;20588;-61
2023/06/27 08:03:48;;;;;;;0.10;0.10;;;25.60;99.90;25.70;102095.00;;;;6308621;22;20155;-61
2023/06/27 08:06:16;;;;;;;0.47;0.47;;;23.60;99.90;28.40;102056.00;;;;6308616;22;20194;-61
2023/06/27 08:08:48;;;;;;;0.10;0.10;;;23.90;99.90;25.90;102089.00;;;;6281975;22;20194;-61
2023/06/27 08:11:18;;;;;;;0.30;0.30;;;23.70;99.90;27.10;102080.00;;;;6308697;22;20208;-61
2023/06/27 08:13:44;;;;;;;0.10;0.10;;;23.60;99.90;27.90;102080.00;;;;6282102;22;20165;-61
2023/06/27 08:16:10;;;;;;;0.10;0.10;;;23.80;99.90;31.00;102043.00;;;;6281296;22;20151;-62
2023/06/27 08:18:36;;;;;;;0.10;0.10;;;25.80;99.90;29.30;102063.00;;;;6308446;22;20216;-61
2023/06/27 08:21:28;;;;;;;2.00;1.17;;;25.90;99.90;32.20;102020.00;;;;6308311;22;20141;-62
2023/06/27 08:23:54;;;;;;;0.20;0.20;;;27.40;99.90;32.00;102006.00;;;;6281433;22;20183;-62
2023/06/27 08:26:26;;;;;;;0.38;0.38;;;27.90;99.90;29.60;101998.00;;;;6308927;22;20137;-61
2023/06/27 08:28:52;;;;;;;0.35;0.35;;;27.50;99.90;29.30;102012.00;;;;6308519;22;20143;-62
2023/06/27 08:31:21;;;;;;;0.95;0.28;;;26.40;99.90;29.20;102039.00;;;;6308840;22;20144;-62
2023/06/27 08:33:48;;;;;;;0.20;0.20;;;26.30;99.90;27.60;102061.00;;;;6308579;22;20646;-61
2023/06/27 08:36:14;;;;;;;0.10;0.10;;;25.40;99.90;29.60;102024.00;;;;6308210;22;20152;-61
2023/06/27 08:38:39;;;;;;;0.10;0.10;;;25.70;99.90;33.00;101980.00;;;;6308373;22;20187;-62
2023/06/27 08:41:05;;;;;;;1.85;0.40;;;27.90;99.90;28.20;102023.00;;;;6308714;22;20583;-61
2023/06/27 08:43:34;;;;;;;1.35;0.40;;;27.00;99.90;30.90;102000.00;;;;6308111;22;20160;-62
2023/06/27 08:46:08;;;;;;;0.10;0.10;;;27.20;99.90;31.30;102000.00;;;;6308177;22;20596;-62
2023/06/27 08:48:56;;;;;;;0.10;0.10;;;27.60;99.90;34.40;101974.00;;;;6281289;22;20247;-62
2023/06/27 08:51:23;;;;;;;7.40;1.35;;;29.50;99.90;35.10;102090.00;;;;6308182;22;20187;-62
2023/06/27 08:54:19;;;;;;;0.10;0.10;;;30.90;99.90;36.20;102056.00;;;;6280993;22;20165;-62
2023/06/27 08:57:04;;;;;;;0.10;0.10;;;31.50;99.90;37.00;102023.00;;;;6280954;22;20596;-62
2023/06/27 08:59:42;;;;;;;0.20;0.20;;;32.50;99.90;37.10;102022.00;;;;6281191;22;20222;-62
2023/06/27 09:02:12;;;;;;;0.10;0.10;;;32.80;98.20;33.50;102047.00;;;;6281316;22;20151;-62
2023/06/27 09:04:41;;;;;;;0.10;0.10;;;31.30;97.10;33.80;102039.00;;;;6255552;22;20153;-62
2023/06/27 09:07:12;;;;;;;0.10;0.10;;;30.40;98.80;35.70;102032.00;;;;6308099;22;20201;-62
2023/06/27 09:09:39;;;;;;;0.20;0.20;;;31.20;99.20;29.60;102054.00;;;;6308189;22;20152;-61
2023/06/27 09:12:14;;;;;;;0.10;0.10;;;28.30;99.90;33.70;102042.00;;;;6307998;22;20172;-62
2023/06/27 09:14:43;;;;;;;9.00;0.47;;;29.30;99.90;28.90;102067.00;;;;6281114;22;20227;-62
2023/06/27 09:17:32;;;;;;;0.10;0.10;;;27.50;99.90;32.40;102043.00;;;;6307537;22;20506;-62
2023/06/27 09:20:01;;;;;;;0.20;0.20;;;27.80;99.90;33.50;102040.00;;;;6307463;22;20460;-62
2023/06/27 09:22:47;;;;;;;0.38;0.35;;;29.20;99.90;31.00;102057.00;;;;6307689;22;20599;-62
2023/06/27 09:25:24;;;;;;;3.50;0.45;;;28.90;99.40;27.90;102068.00;;;;6280899;22;20147;-62
2023/06/27 09:27:51;;;;;;;0.10;0.10;;;26.50;99.90;30.80;102052.00;;;;6307685;22;20159;-62
2023/06/27 09:30:17;;;;;;;0.20;0.20;;;26.50;99.90;28.90;102065.00;;;;6280589;22;20555;-62
2023/06/27 09:32:59;;;;;;;0.10;0.10;;;26.30;99.90;28.20;102076.00;;;;6280352;22;20200;-61
2023/06/27 09:35:27;;;;;;;0.10;0.10;;;24.90;99.90;29.80;102065.00;;;;6308101;22;20573;-62
2023/06/27 09:38:08;;;;;;;0.73;0.73;;;25.40;99.90;28.30;102077.00;;;;6280515;22;20227;-61
2023/06/27 09:40:35;;;;;;;0.60;0.60;;;24.70;99.90;30.00;102062.00;;;;6308189;22;20163;-62
2023/06/27 09:43:37;;;;;;;0.10;0.10;;;25.90;99.90;31.80;102050.00;;;;6307780;22;20152;-62
2023/06/27 09:46:09;;;;;;;0.45;0.45;;;27.10;99.90;27.90;102063.00;;;;6307883;22;20567;-62
2023/06/27 09:48:38;;;;;;;0.10;0.10;;;26.50;99.90;26.80;102077.00;;;;6306827;22;20619;-62
2023/06/27 09:51:39;;;;;;;0.35;0.35;;;24.90;99.90;27.00;102078.00;;;;6307530;22;20628;-62
2023/06/27 09:54:16;;;;;;;1.50;1.40;;;24.10;99.90;28.10;102055.00;;;;6307777;22;20584;-62
2023/06/27 09:56:45;;;;;;;1.17;0.85;;;24.70;99.90;28.10;102065.00;;;;6254848;22;20183;-62
2023/06/27 09:59:12;;;;;;;0.20;0.20;;;25.00;99.90;28.50;102071.00;;;;6307069;22;20467;-62
2023/06/27 10:01:42;;;;;;;0.85;0.85;;;24.70;99.90;30.20;102044.00;;;;6303807;22;20166;-63
2023/06/27 10:04:09;;;;;;;1.30;1.20;;;25.60;99.90;31.30;102039.00;;;;6307364;22;20136;-63
2023/06/27 10:06:40;;;;;;;0.10;0.10;;;26.60;99.90;31.30;102025.00;;;;6280278;22;20565;-63
2023/06/27 10:09:26;;;;;;;0.10;0.10;;;27.00;99.90;31.40;102013.00;;;;6307441;22;20216;-63
2023/06/27 10:12:26;;;;;;;0.10;0.10;;;27.20;99.90;29.90;102043.00;;;;6307267;22;20164;-63
2023/06/27 10:14:56;;;;;;;0.75;0.40;;;27.10;99.90;28.90;102043.00;;;;6280036;22;20188;-63
2023/06/27 10:17:23;;;;;;;0.32;0.32;;;25.90;99.90;26.10;102059.00;;;;6254106;22;20179;-62
2023/06/27 10:19:57;;;;;;;0.15;0.15;;;24.20;99.90;27.10;102058.00;;;;6307317;22;20164;-62
2023/06/27 10:33:29;;;;;;;0.85;0.52;;;23.70;99.90;27.40;102059.00;;;;5070022;28;20552;-61
2023/06/27 10:36:01;;;;;;;0.10;0.10;;;24.30;99.90;26.30;102064.00;;;;5038687;28;20182;-61
2023/06/27 10:38:46;;;;;;;0.52;0.52;;;23.90;99.90;26.00;102049.00;;;;5048714;28;20639;-62
2023/06/27 10:41:26;;;;;;;0.43;0.43;;;23.50;99.90;26.30;102075.00;;;;5049996;28;20194;-63
2023/06/27 10:43:53;;;;;;;0.50;0.20;;;23.60;99.90;26.20;102076.00;;;;5049632;28;20191;-63
2023/06/27 10:46:26;;;;;;;0.10;0.10;;;23.40;99.90;28.10;102064.00;;;;5050134;28;20266;-63
2023/06/27 10:49:02;;;;;;;0.10;0.10;;;23.90;99.90;29.60;102064.00;;;;5049845;28;20579;-61
2023/06/27 10:52:42;;;;;;;0.20;0.20;;;25.00;99.90;30.50;102053.00;;;;5050109;28;20596;-64
2023/06/27 10:55:31;;;;;;;4.80;1.73;;;25.90;99.90;32.00;102041.00;;;;5047506;28;20656;-62
2023/06/27 10:58:10;;;;;;;0.10;0.10;;;27.30;99.90;31.20;102040.00;;;;5046868;28;20221;-62
2023/06/27 11:00:59;;;;;;;0.15;0.15;;;27.40;99.90;31.50;102041.00;;;;5049537;28;20189;-62
2023/06/27 11:03:33;;;;;;;3.92;0.73;;;27.40;99.90;29.50;102048.00;;;;5048819;28;20229;-62
2023/06/27 11:05:59;;;;;;;3.80;0.68;;;26.60;99.90;26.80;102070.00;;;;5064291;28;20645;-62
2023/06/27 11:08:33;;;;;;;0.32;0.32;;;25.40;99.90;27.70;102054.00;;;;5049480;28;20186;-61
2023/06/27 11:10:59;;;;;;;0.30;0.30;;;24.50;99.90;27.20;102057.00;;;;5046485;28;20185;-61
2023/06/27 11:13:37;;;;;;;0.43;0.30;;;24.30;99.90;28.80;102054.00;;;;5049912;28;20186;-61
2023/06/27 11:16:31;;;;;;;0.10;0.10;;;25.00;99.90;27.90;102032.00;;;;5049391;28;20178;-61
2023/06/27 11:18:58;;;;;;;0.20;0.20;;;24.80;99.90;27.50;102056.00;;;;5044783;28;20226;-61
2023/06/27 11:21:25;;;;;;;0.25;0.25;;;24.70;99.90;28.80;102031.00;;;;5042914;28;20637;-63
2023/06/27 11:23:53;;;;;;;0.10;0.10;;;24.90;99.90;27.10;102054.00;;;;5049524;28;20174;-62
2023/06/27 11:26:22;;;;;;;0.30;0.30;;;24.50;99.90;26.50;102051.00;;;;5049236;28;20206;-62
2023/06/27 11:28:48;;;;;;;0.17;0.17;;;24.30;99.90;27.90;102046.00;;;;5048981;28;20174;-62
2023/06/27 11:31:17;;;;;;;1.00;0.70;;;24.50;99.90;27.10;102056.00;;;;5049167;28;20183;-63
2023/06/27 11:33:43;;;;;;;0.65;0.60;;;24.50;99.90;27.30;102028.00;;;;5064432;28;20186;-62
2023/06/27 11:36:49;;;;;;;1.15;0.82;;;24.40;99.90;28.50;102048.00;;;;5048790;28;20257;-62
2023/06/27 11:39:16;;;;;;;0.68;0.57;;;24.60;99.90;27.80;102033.00;;;;5063215;28;20190;-62
2023/06/27 11:41:48;;;;;;;0.20;0.20;;;24.90;99.90;30.10;102029.00;;;;5049045;28;20190;-63
2023/06/27 11:44:16;;;;;;;0.10;0.10;;;25.80;99.90;31.40;102031.00;;;;5037756;28;20599;-63
2023/06/27 11:46:54;;;;;;;0.20;0.20;;;26.80;99.90;31.80;102031.00;;;;5035897;28;20190;-63
2023/06/27 11:49:27;;;;;;;0.10;0.10;;;27.50;99.90;33.20;102022.00;;;;5034547;28;20186;-63
2023/06/27 11:51:57;;;;;;;0.10;0.10;;;28.60;99.90;33.30;102014.00;;;;5035541;28;20210;-63
2023/06/27 11:54:23;;;;;;;0.17;0.13;;;29.20;99.90;33.90;102006.00;;;;5022985;28;20191;-61
2023/06/27 11:56:50;;;;;;;0.20;0.20;;;29.70;99.90;34.00;101999.00;;;;5035358;28;20183;-63
2023/06/27 11:59:16;;;;;;;0.35;0.20;;;30.10;99.90;34.00;102006.00;;;;5050784;28;20190;-63
2023/06/27 12:01:45;;;;;;;0.10;0.10;;;30.40;99.90;35.30;101999.00;;;;5035409;28;20645;-63
2023/06/27 12:04:19;;;;;;;0.10;0.10;;;31.00;99.30;35.60;101990.00;;;;5035574;28;20179;-61
2023/06/27 12:06:46;;;;;;;0.10;0.10;;;31.60;98.60;34.80;101997.00;;;;5035235;28;20733;-61
2023/06/27 12:10:05;;;;;;;0.63;0.57;;;31.40;97.60;30.20;102026.00;;;;5051094;28;20187;-63
2023/06/27 12:12:38;;;;;;;0.75;0.50;;;28.90;98.50;29.90;102030.00;;;;5026730;28;20321;-63
2023/06/27 12:15:14;;;;;;;0.30;0.30;;;27.10;99.90;30.60;102025.00;;;;5035024;28;20183;-63
2023/06/27 12:18:01;;;;;;;0.65;0.65;;;26.90;99.90;30.30;102029.00;;;;5035352;28;20186;-63
2023/06/27 12:20:57;;;;;;;0.32;0.32;;;26.50;99.90;30.10;102026.00;;;;5035254;28;20191;-63
2023/06/27 12:23:28;;;;;;;0.10;0.10;;;26.70;99.90;30.40;102028.00;;;;5034556;28;20236;-63
2023/06/27 12:26:00;;;;;;;0.10;0.10;;;26.40;99.90;30.70;102024.00;;;;5033598;28;20183;-63
2023/06/27 12:28:26;;;;;;;0.10;0.10;;;26.50;99.90;31.00;102016.00;;;;5035251;28;20551;-63
2023/06/27 12:30:55;;;;;;;0.75;0.73;;;26.70;99.90;29.70;102004.00;;;;5035046;28;20182;-63
2023/06/27 12:33:24;;;;;;;0.10;0.10;;;26.50;99.90;29.70;102023.00;;;;5032913;28;20634;-62
2023/06/27 12:35:52;;;;;;;0.10;0.10;;;25.90;99.90;30.70;102012.00;;;;5034991;28;20236;-62
2023/06/27 12:38:20;;;;;;;0.10;0.10;;;26.30;99.90;30.50;101992.00;;;;5049180;28;20274;-62
2023/06/27 12:40:49;;;;;;;0.10;0.10;;;26.40;99.90;30.70;102013.00;;;;5034717;28;20183;-62
2023/06/27 12:43:45;;;;;;;3.95;3.70;;;26.90;99.90;30.00;102013.00;;;;5034974;28;20187;-62
2023/06/27 12:46:16;;;;;;;1.02;1.02;;;27.00;99.90;30.90;102013.00;;;;5034692;28;20175;-62
2023/06/27 12:48:45;;;;;;;13.32;2.65;;;27.10;99.90;30.40;102007.00;;;;5033861;28;20190;-62
2023/06/27 12:51:15;;;;;;;2.30;0.98;;;27.00;99.90;29.70;102007.00;;;;5049332;28;20271;-62
2023/06/27 12:53:44;;;;;;;0.30;0.30;;;26.50;99.90;28.50;101995.00;;;;5046958;28;20282;-62
2023/06/27 12:56:11;;;;;;;0.32;0.32;;;26.00;99.90;29.90;102005.00;;;;5032172;28;20179;-62
2023/06/27 12:58:41;;;;;;;0.10;0.10;;;26.00;99.90;30.30;101990.00;;;;5049638;28;20182;-62
2023/06/27 13:01:10;;;;;;;0.10;0.10;;;26.30;99.90;31.30;101990.00;;;;5034622;28;20186;-62
2023/06/27 13:03:49;;;;;;;0.10;0.10;;;26.90;99.90;28.00;102005.00;;;;5034355;28;20190;-62
2023/06/27 13:06:22;;;;;;;1.10;0.90;;;25.60;99.90;30.60;101990.00;;;;5034184;28;20269;-62
2023/06/27 13:08:56;;;;;;;2.72;0.73;;;26.40;99.90;30.70;101986.00;;;;5033232;28;20179;-62
2023/06/27 13:11:22;;;;;;;7.10;5.78;;;26.90;99.90;32.10;101974.00;;;;5035532;28;20199;-63
2023/06/27 13:13:53;;;;;;;0.10;0.10;;;27.60;99.90;33.00;101971.00;;;;5034438;28;20273;-63
2023/06/27 13:16:30;;;;;;;1.45;0.70;;;28.30;99.90;33.10;101968.00;;;;5034181;28;20179;-63
2023/06/27 13:19:13;;;;;;;2.20;0.75;;;28.60;99.90;32.10;101971.00;;;;5033931;28;20187;-62
2023/06/27 13:22:02;;;;;;;0.40;0.40;;;28.20;99.90;31.50;101980.00;;;;5033658;28;20182;-62
2023/06/27 13:24:51;;;;;;;0.10;0.10;;;27.80;99.90;30.00;101990.00;;;;5024305;28;20183;-62
2023/06/27 13:27:24;;;;;;;0.63;0.63;;;27.20;99.90;29.00;102006.00;;;;5028997;28;20190;-62
2023/06/27 13:29:53;;;;;;;0.20;0.20;;;26.10;99.90;29.00;101999.00;;;;5033970;28;20621;-62
2023/06/27 13:32:43;;;;;;;0.32;0.32;;;25.60;99.90;28.30;102010.00;;;;5033667;28;20218;-62
2023/06/27 13:35:19;;;;;;;0.10;0.10;;;25.30;99.90;28.70;102013.00;;;;5033692;28;20237;-62
2023/06/27 13:37:54;;;;;;;0.90;0.90;;;24.90;99.90;29.10;102004.00;;;;5033294;28;20189;-62
2023/06/27 13:40:25;;;;;;;0.10;0.10;;;25.10;99.90;29.70;102009.00;;;;5033309;28;20608;-62
2023/06/27 13:42:55;;;;;;;0.65;0.40;;;25.30;99.90;28.60;102009.00;;;;5033794;28;20187;-62
2023/06/27 13:45:46;;;;;;;0.15;0.15;;;25.20;99.90;29.10;102005.00;;;;5033578;28;20193;-62
2023/06/27 13:48:17;;;;;;;0.10;0.10;;;25.20;99.90;29.50;102001.00;;;;5030574;28;20794;-62
2023/06/27 13:50:48;;;;;;;0.75;0.75;;;25.40;99.90;30.00;101994.00;;;;5049140;28;20190;-62
2023/06/27 13:53:14;;;;;;;0.10;0.10;;;25.70;99.90;30.10;101990.00;;;;5035917;28;20206;-62
2023/06/27 13:55:40;;;;;;;0.20;0.20;;;25.90;99.90;30.00;101969.00;;;;5033070;28;20187;-62
2023/06/27 13:58:29;;;;;;;0.10;0.10;;;26.20;99.90;29.70;101972.00;;;;5032303;28;20194;-62
2023/06/27 14:01:07;;;;;;;55.92;3.78;;;25.90;99.90;30.10;101966.00;;;;5042556;28;20193;-62
2023/06/27 14:03:39;;;;;;;0.20;0.20;;;26.20;99.90;29.70;101969.00;;;;5048659;28;20217;-62
2023/06/27 14:06:05;;;;;;;0.22;0.22;;;26.20;99.90;30.50;101966.00;;;;5032967;28;20193;-62
2023/06/27 14:08:51;;;;;;;0.22;0.22;;;26.50;99.90;30.30;101974.00;;;;5032610;28;20594;-62
2023/06/27 14:11:22;;;;;;;0.10;0.10;;;26.90;99.90;29.00;101986.00;;;;5027152;28;20198;-62
2023/06/27 14:13:53;;;;;;;0.73;0.60;;;25.90;99.90;28.80;101981.00;;;;5033055;28;20545;-62
2023/06/27 14:16:20;;;;;;;5.55;2.38;;;25.60;99.90;29.10;101987.00;;;;5031988;28;20183;-62
2023/06/27 14:18:48;;;;;;;1.85;0.88;;;25.60;99.90;27.90;101991.00;;;;5048238;28;20194;-62
2023/06/27 14:21:21;;;;;;;1.77;0.35;;;25.20;99.90;28.90;101986.00;;;;5033217;28;20190;-62
2023/06/27 14:23:51;;;;;;;0.55;0.30;;;25.30;99.90;28.30;101988.00;;;;5032570;28;20189;-62
2023/06/27 14:26:17;;;;;;;0.20;0.20;;;25.10;99.90;29.30;101985.00;;;;5033029;28;20186;-62
2023/06/27 14:28:43;;;;;;;0.32;0.32;;;25.40;99.90;29.60;101964.00;;;;5032896;28;20202;-62
2023/06/27 14:31:17;;;;;;;2.28;0.20;;;25.70;99.90;29.10;101965.00;;;;5032807;28;20649;-62
2023/06/27 14:33:43;;;;;;;1.17;1.13;;;25.80;99.90;29.70;101957.00;;;;5032740;28;20182;-62
2023/06/27 14:36:11;;;;;;;0.10;0.10;;;26.00;99.90;29.70;101962.00;;;;5033544;28;20194;-62
2023/06/27 14:38:38;;;;;;;0.25;0.25;;;26.20;99.90;29.40;101958.00;;;;5031556;28;20187;-62
2023/06/27 14:41:09;;;;;;;0.10;0.10;;;25.90;99.90;29.40;101952.00;;;;5031781;28;20197;-62
2023/06/27 14:43:56;;;;;;;3.92;0.93;;;25.60;99.90;27.60;101968.00;;;;5032504;28;20274;-62
2023/06/27 14:46:25;;;;;;;0.20;0.20;;;25.20;99.90;29.10;101962.00;;;;5032785;28;20182;-62
2023/06/27 14:48:53;;;;;;;1.45;0.43;;;25.20;99.90;29.40;101955.00;;;;5031745;28;20277;-62
2023/06/27 14:51:22;;;;;;;0.10;0.10;;;25.40;99.90;29.10;101955.00;;;;5030819;28;20217;-62
2023/06/27 14:53:57;;;;;;;0.30;0.30;;;25.40;99.90;28.50;101957.00;;;;5031200;28;20179;-62
2023/06/27 14:56:33;;;;;;;1.35;1.17;;;25.40;99.90;27.10;101966.00;;;;5032797;28;20652;-62
2023/06/27 14:59:02;;;;;;;0.32;0.32;;;24.60;99.90;27.70;101959.00;;;;5032650;28;20245;-62
2023/06/27 15:01:28;;;;;;;0.57;0.57;;;24.30;99.90;27.90;101958.00;;;;5032633;28;20669;-62
2023/06/27 15:03:57;;;;;;;3.00;0.98;;;24.40;99.90;28.30;101949.00;;;;5032746;28;20199;-62
2023/06/27 15:06:46;;;;;;;0.10;0.10;;;24.60;99.90;28.40;101944.00;;;;5044816;28;20274;-62
2023/06/27 15:09:35;;;;;;;0.30;0.30;;;24.70;99.90;28.90;101949.00;;;;5044975;28;20187;-62
2023/06/27 15:12:07;;;;;;;0.80;0.80;;;25.10;99.90;27.70;101936.00;;;;5024499;28;20241;-62
2023/06/27 15:14:33;;;;;;;0.65;0.65;;;24.80;99.90;28.20;101947.00;;;;5031576;28;20175;-62
2023/06/27 15:17:06;;;;;;;0.75;0.40;;;24.70;99.90;26.90;101954.00;;;;5032377;28;20183;-62
2023/06/27 15:19:32;;;;;;;0.52;0.40;;;24.30;99.90;27.80;101946.00;;;;5050039;28;20225;-62
2023/06/27 15:21:57;;;;;;;0.45;0.45;;;24.20;99.90;28.10;101916.00;;;;5036096;28;20226;-62
2023/06/27 15:24:26;;;;;;;0.28;0.28;;;24.30;99.90;28.00;101948.00;;;;5035950;28;20187;-62
2023/06/27 15:26:55;;;;;;;0.10;0.10;;;24.50;99.90;27.80;101957.00;;;;5036373;28;20190;-62
2023/06/27 15:29:43;;;;;;;0.40;0.40;;;24.50;99.90;27.90;101918.00;;;;5036159;28;20214;-62
2023/06/27 15:32:15;;;;;;;0.30;0.30;;;24.40;99.90;28.10;101934.00;;;;5029115;28;20584;-62
2023/06/27 15:34:43;;;;;;;0.10;0.10;;;24.50;99.90;28.30;101897.00;;;;5036012;28;20190;-62
2023/06/27 15:37:12;;;;;;;0.10;0.10;;;24.70;99.90;29.20;101923.00;;;;5050941;28;20270;-62
2023/06/27 15:39:39;;;;;;;0.70;0.40;;;24.90;99.90;28.00;101910.00;;;;5051128;28;20286;-62
2023/06/27 15:45:03;;;;;;;0.10;0.10;;;24.60;99.90;27.10;101943.00;;;;5023596;28;20317;-62
2023/06/27 15:47:38;;;;;;;3.38;1.23;;;24.10;99.90;27.50;101939.00;;;;5036133;28;20193;-62
2023/06/27 15:50:08;;;;;;;0.20;0.20;;;24.10;99.90;28.20;101920.00;;;;5035237;28;20206;-62
2023/06/27 15:53:05;;;;;;;0.40;0.40;;;24.30;99.90;27.90;101930.00;;;;5034378;28;20207;-62
2023/06/27 15:55:33;;;;;;;0.50;0.50;;;24.30;99.90;28.40;101923.00;;;;5035705;28;20179;-62
2023/06/27 15:58:02;;;;;;;0.45;0.45;;;24.50;99.90;28.40;101929.00;;;;5035975;28;20200;-62
2023/06/27 16:00:34;;;;;;;0.10;0.10;;;24.80;99.90;28.40;101931.00;;;;5036044;28;20183;-61
2023/06/27 16:03:03;;;;;;;0.10;0.10;;;24.60;99.90;28.50;101928.00;;;;5034403;28;20274;-61
2023/06/27 16:05:32;;;;;;;0.20;0.20;;;24.70;99.90;28.60;101922.00;;;;5033905;28;20213;-61
2023/06/27 16:08:01;;;;;;;0.10;0.10;;;24.70;99.90;29.20;101918.00;;;;5039049;28;20186;-61
2023/06/27 16:10:29;;;;;;;0.38;0.38;;;24.90;99.90;28.50;101916.00;;;;5035348;28;20209;-61
2023/06/27 16:12:59;;;;;;;0.93;0.35;;;24.90;99.90;27.90;101929.00;;;;5035265;28;20202;-62
2023/06/27 16:15:30;;;;;;;0.20;0.20;;;24.50;99.90;28.10;101926.00;;;;5035524;28;20674;-61
2023/06/27 16:17:59;;;;;;;0.10;0.10;;;24.40;99.90;28.30;101922.00;;;;5030467;28;20210;-62
2023/06/27 16:20:31;;;;;;;1.27;0.98;;;24.50;99.90;28.20;101925.00;;;;5034890;28;20200;-61
2023/06/27 16:23:03;;;;;;;0.75;0.75;;;24.60;99.90;27.50;101935.00;;;;5035370;28;20210;-61
2023/06/27 16:25:31;;;;;;;0.30;0.30;;;24.10;99.90;27.00;101937.00;;;;5035155;28;20188;-61
2023/06/27 16:27:59;;;;;;;0.10;0.10;;;23.70;99.90;27.70;101928.00;;;;5035649;28;20179;-61
2023/06/27 16:30:48;;;;;;;0.10;0.10;;;23.90;99.90;27.70;101915.00;;;;5035161;28;20193;-61
2023/06/27 16:33:24;;;;;;;0.10;0.10;;;24.00;99.90;27.20;101913.00;;;;5026760;28;20207;-61
2023/06/27 16:35:53;;;;;;;0.22;0.22;;;23.80;99.90;26.90;101923.00;;;;5032028;28;20217;-61
2023/06/27 16:38:26;;;;;;;0.20;0.20;;;23.60;99.90;26.70;101929.00;;;;5034667;28;20218;-62
2023/06/27 16:40:55;;;;;;;1.13;1.02;;;23.50;99.90;27.10;101931.00;;;;5031779;28;20271;-62
2023/06/27 16:43:58;;;;;;;0.10;0.10;;;23.50;99.90;27.00;101923.00;;;;5050256;28;20197;-62
2023/06/27 16:46:28;;;;;;;0.10;0.10;;;23.30;99.90;26.90;101928.00;;;;5031090;28;20202;-62
2023/06/27 16:48:56;;;;;;;0.40;0.40;;;23.30;99.90;26.50;101924.00;;;;5033303;28;20191;-62
2023/06/27 16:51:28;;;;;;;0.10;0.10;;;23.20;99.90;27.20;101920.00;;;;5034668;28;20269;-61
2023/06/27 16:54:01;;;;;;;0.10;0.10;;;23.30;99.90;27.40;101916.00;;;;5029767;28;20187;-62
2023/06/27 16:56:47;;;;;;;0.10;0.10;;;23.50;99.90;27.70;101909.00;;;;5033086;28;20186;-61
2023/06/27 16:59:15;;;;;;;0.10;0.10;;;23.60;99.90;28.10;101911.00;;;;5034156;28;20193;-61
2023/06/27 17:01:42;;;;;;;0.10;0.10;;;23.90;99.90;27.70;101901.00;;;;5018624;28;20203;-62
2023/06/27 17:04:13;;;;;;;0.10;0.10;;;23.90;99.90;27.90;101912.00;;;;5046086;28;20629;-62
2023/06/27 17:06:42;;;;;;;0.10;0.10;;;23.90;99.90;27.60;101911.00;;;;5027868;28;20201;-62
2023/06/27 17:09:13;;;;;;;0.45;0.30;;;23.80;99.90;26.90;101927.00;;;;5034129;28;20221;-62
2023/06/27 17:12:01;;;;;;;0.20;0.20;;;23.50;99.90;26.80;101923.00;;;;5034694;28;20723;-61
2023/06/27 17:14:27;;;;;;;0.10;0.10;;;23.20;99.90;27.10;101908.00;;;;5034742;28;20664;-61
2023/06/27 17:16:59;;;;;;;0.10;0.10;;;23.20;99.90;27.40;101901.00;;;;5048701;28;20425;-61
2023/06/27 17:19:31;;;;;;;0.10;0.10;;;23.50;99.90;27.60;101911.00;;;;5030161;28;20672;-62
2023/06/27 17:21:59;;;;;;;0.20;0.20;;;23.50;99.90;28.00;101900.00;;;;5034080;28;20179;-61
2023/06/27 17:24:30;;;;;;;0.10;0.10;;;23.70;99.90;28.40;101894.00;;;;5034055;28;20194;-62
2023/06/27 17:27:04;;;;;;;0.10;0.10;;;24.00;99.90;26.70;101902.00;;;;5046583;28;20190;-61
2023/06/27 17:29:35;;;;;;;0.10;0.10;;;23.60;99.90;27.70;101902.00;;;;5046288;28;20194;-61
2023/06/27 17:32:05;;;;;;;5.05;4.70;;;23.60;99.90;27.40;101898.00;;;;5032211;28;20222;-61
2023/06/27 17:34:33;;;;;;;0.28;0.28;;;23.50;99.90;27.90;101898.00;;;;5033884;28;20262;-61
2023/06/27 17:37:11;;;;;;;0.10;0.10;;;23.70;99.90;27.10;101903.00;;;;5048886;28;20223;-62
2023/06/27 17:39:43;;;;;;;0.20;0.20;;;23.70;99.90;27.00;101920.00;;;;5032645;28;20301;-62
2023/06/27 17:42:17;;;;;;;0.10;0.10;;;23.40;99.90;27.30;101917.00;;;;5043359;28;20644;-61
2023/06/27 17:45:05;;;;;;;0.10;0.10;;;23.20;99.90;27.40;101899.00;;;;5030465;28;20185;-62
2023/06/27 17:47:31;;;;;;;0.10;0.10;;;23.30;99.90;27.60;101922.00;;;;5032868;28;20629;-62
2023/06/27 17:49:59;;;;;;;0.20;0.20;;;23.40;99.90;26.90;101918.00;;;;5049066;28;20190;-62
2023/06/27 17:52:28;;;;;;;0.10;0.10;;;23.20;99.90;27.60;101917.00;;;;5047468;28;20688;-62
2023/06/27 17:55:01;;;;;;;0.10;0.10;;;23.30;99.90;27.00;101917.00;;;;5033334;28;20281;-62
2023/06/27 17:57:35;;;;;;;0.20;0.20;;;23.20;99.90;27.10;101916.00;;;;5030174;28;20215;-62
2023/06/27 18:00:19;;;;;;;0.10;0.10;;;23.10;99.90;26.70;101915.00;;;;5048760;28;20187;-61
2023/06/27 18:02:56;;;;;;;0.10;0.10;;;22.90;99.90;26.70;101918.00;;;;5045603;28;20182;-61
2023/06/27 18:05:31;;;;;;;0.10;0.10;;;22.80;99.90;26.40;101905.00;;;;5048353;28;20194;-61
2023/06/27 18:08:05;;;;;;;0.30;0.30;;;22.70;99.90;27.20;101912.00;;;;5033181;28;20277;-62
2023/06/27 18:10:33;;;;;;;0.47;0.47;;;22.90;99.90;27.20;101923.00;;;;5016468;28;20177;-62
2023/06/27 18:13:04;;;;;;;0.13;0.13;;;23.00;99.90;27.10;101917.00;;;;5033222;28;20223;-62
2023/06/27 18:15:32;;;;;;;0.10;0.10;;;23.00;99.90;26.80;101896.00;;;;5024992;28;20692;-62
2023/06/27 18:17:58;;;;;;;0.10;0.10;;;22.90;99.90;26.50;101897.00;;;;5033094;28;20183;-62
2023/06/27 18:20:24;;;;;;;0.10;0.10;;;22.90;99.90;27.10;101919.00;;;;5039836;28;20179;-62
2023/06/27 18:22:57;;;;;;;0.15;0.15;;;23.00;99.90;27.10;101931.00;;;;5027094;28;20233;-62
2023/06/27 18:25:23;;;;;;;0.20;0.20;;;22.90;99.90;27.10;101927.00;;;;5032905;28;20213;-62
2023/06/27 18:27:49;;;;;;;0.10;0.10;;;23.00;99.90;27.60;101931.00;;;;5033047;28;20236;-62